Time;durP1;ratioP1;P1;durP2;ratioP2;P2;SDS_P1;SDS_P2;PMS_P1;PMS_P2;Temp;Humidity;BMP_temperature;BMP_pressure;BME280_temperature;BME280_humidity;BME280_pressure;Samples;Min_cycle;Max_cycle;Signal;HPM_P1;HPM_P2
2022/08/13 00:00:21;;;;;;;3.10;2.80;;;16.10;99.90;;;;;;5070183;28;20476;-50
2022/08/13 00:02:48;;;;;;;3.10;2.70;;;16.00;99.90;;;;;;5070697;28;20436;-50
2022/08/13 00:05:15;;;;;;;2.43;2.13;;;15.90;99.90;;;;;;5070371;28;20472;-50
2022/08/13 00:07:42;;;;;;;3.33;2.60;;;15.90;99.90;;;;;;5070362;28;20930;-50
2022/08/13 00:10:10;;;;;;;3.10;2.53;;;15.80;99.90;;;;;;5070313;28;20448;-50
2022/08/13 00:15:27;;;;;;;2.87;2.60;;;15.70;99.90;;;;;;5070178;28;20980;-50
2022/08/13 00:17:56;;;;;;;2.67;2.23;;;15.50;99.90;;;;;;5070737;28;20441;-50
2022/08/13 00:20:27;;;;;;;2.60;2.37;;;15.30;99.90;;;;;;5069942;28;20468;-50
2022/08/13 00:22:56;;;;;;;3.60;2.20;;;15.20;99.90;;;;;;5070345;28;20479;-50
2022/08/13 00:25:24;;;;;;;4.53;2.53;;;15.10;99.90;;;;;;5070026;28;20484;-50
2022/08/13 00:27:57;;;;;;;5.20;3.50;;;15.00;99.90;;;;;;5070290;28;20531;-50
2022/08/13 00:30:31;;;;;;;4.13;2.40;;;15.00;99.90;;;;;;5070008;28;20495;-50
2022/08/13 00:32:59;;;;;;;3.00;2.50;;;15.30;99.90;;;;;;5070634;28;20494;-50
2022/08/13 00:35:27;;;;;;;2.20;1.97;;;15.50;99.90;;;;;;5070309;28;20468;-50
2022/08/13 00:37:55;;;;;;;3.23;2.13;;;15.60;99.90;;;;;;5070109;28;20443;-50
2022/08/13 00:40:23;;;;;;;2.57;2.37;;;15.70;99.90;;;;;;5069779;28;20575;-50
2022/08/13 00:42:52;;;;;;;2.93;2.40;;;15.40;99.90;;;;;;5070228;28;20517;-50
2022/08/13 00:45:20;;;;;;;2.67;2.47;;;15.20;99.90;;;;;;5073811;28;20786;-50
2022/08/13 00:50:33;;;;;;;3.90;2.30;;;15.10;99.90;;;;;;5073813;28;20411;-49
2022/08/13 00:53:01;;;;;;;2.87;2.50;;;15.20;99.90;;;;;;5073725;28;20521;-50
2022/08/13 00:55:28;;;;;;;3.10;2.33;;;15.20;99.90;;;;;;5073424;28;20448;-50
2022/08/13 00:57:58;;;;;;;3.30;2.60;;;15.30;99.90;;;;;;5073617;28;20429;-51
2022/08/13 01:00:27;;;;;;;3.20;2.90;;;14.50;99.90;;;;;;5073156;28;20480;-50
2022/08/13 01:02:57;;;;;;;3.27;2.90;;;14.40;99.90;;;;;;5073297;28;20429;-50
2022/08/13 01:05:25;;;;;;;2.80;2.50;;;14.40;99.90;;;;;;5073499;28;20980;-50
2022/08/13 01:07:53;;;;;;;2.40;2.20;;;14.60;99.90;;;;;;5073655;28;20436;-50
2022/08/13 01:10:20;;;;;;;5.00;3.23;;;14.80;99.90;;;;;;5073568;28;21007;-50
2022/08/13 01:12:51;;;;;;;4.83;2.50;;;15.10;99.90;;;;;;5073826;28;20454;-50
2022/08/13 01:15:23;;;;;;;3.53;2.57;;;14.80;99.90;;;;;;5073438;28;20563;-50
2022/08/13 01:17:53;;;;;;;2.50;2.30;;;15.10;99.90;;;;;;5073454;28;20433;-51
2022/08/13 01:20:21;;;;;;;3.80;2.93;;;14.90;99.90;;;;;;5072851;28;20879;-50
2022/08/13 01:22:52;;;;;;;2.63;2.43;;;14.70;99.90;;;;;;5073405;28;20428;-50
2022/08/13 01:25:21;;;;;;;3.00;2.33;;;14.80;99.90;;;;;;5072659;28;20484;-50
2022/08/13 01:27:49;;;;;;;3.00;1.93;;;14.80;99.90;;;;;;5073264;28;20555;-50
2022/08/13 01:30:19;;;;;;;2.83;2.00;;;15.20;99.90;;;;;;5072871;28;20450;-50
2022/08/13 01:32:46;;;;;;;4.80;2.80;;;15.30;99.90;;;;;;5073198;28;20455;-52
2022/08/13 01:35:15;;;;;;;2.80;2.60;;;15.10;99.90;;;;;;5073103;28;20468;-50
2022/08/13 01:37:44;;;;;;;3.90;2.43;;;15.20;99.90;;;;;;5072924;28;20882;-50
2022/08/13 01:40:13;;;;;;;4.33;2.63;;;15.00;99.90;;;;;;5072722;28;21020;-50
2022/08/13 01:42:42;;;;;;;3.27;2.50;;;14.80;99.90;;;;;;5072705;28;20801;-51
2022/08/13 01:45:12;;;;;;;3.07;2.70;;;14.90;99.90;;;;;;5072823;28;20529;-50
2022/08/13 01:50:31;;;;;;;2.33;2.13;;;15.00;99.90;;;;;;5072535;28;20924;-50
2022/08/13 01:53:01;;;;;;;2.90;2.60;;;15.10;99.90;;;;;;5072594;28;20459;-51
2022/08/13 01:55:38;;;;;;;2.83;2.53;;;14.90;99.90;;;;;;5071758;28;20457;-50
2022/08/13 01:58:07;;;;;;;2.97;2.60;;;15.00;99.90;;;;;;5072488;28;20509;-51
2022/08/13 02:00:36;;;;;;;2.87;2.57;;;15.40;99.90;;;;;;5072252;28;20530;-50
2022/08/13 02:03:04;;;;;;;9.50;2.43;;;15.50;99.90;;;;;;5072257;28;20428;-50
2022/08/13 02:05:31;;;;;;;2.67;2.47;;;15.50;99.90;;;;;;5072500;28;20472;-50
2022/08/13 02:08:00;;;;;;;3.43;2.63;;;15.00;99.90;;;;;;5072261;28;20444;-50
2022/08/13 02:10:28;;;;;;;6.57;2.90;;;15.00;99.90;;;;;;5072153;28;20477;-50
2022/08/13 02:12:56;;;;;;;2.60;2.40;;;15.10;99.90;;;;;;5072300;28;20544;-50
2022/08/13 02:15:23;;;;;;;2.87;2.57;;;15.00;99.90;;;;;;5072786;28;20444;-50
2022/08/13 02:17:50;;;;;;;4.40;2.60;;;14.90;99.90;;;;;;5072448;28;20448;-50
2022/08/13 02:20:18;;;;;;;2.70;2.20;;;15.00;99.90;;;;;;5071718;28;20828;-50
2022/08/13 02:22:46;;;;;;;2.73;2.20;;;14.70;99.90;;;;;;5072204;28;21002;-51
2022/08/13 02:25:14;;;;;;;3.43;2.43;;;14.90;99.90;;;;;;5071957;28;20539;-51
2022/08/13 02:27:42;;;;;;;2.40;2.20;;;14.90;99.90;;;;;;5071940;28;20436;-50
2022/08/13 02:30:12;;;;;;;2.77;2.43;;;14.80;99.90;;;;;;5072131;28;20444;-50
2022/08/13 02:32:40;;;;;;;4.63;3.27;;;14.40;99.90;;;;;;5071897;28;20506;-50
2022/08/13 02:35:10;;;;;;;2.90;2.70;;;14.20;99.90;;;;;;5071944;28;21046;-50
2022/08/13 02:37:38;;;;;;;3.90;2.77;;;14.50;99.90;;;;;;5071728;28;20815;-50
2022/08/13 02:41:38;;;;;;;3.77;2.33;;;14.70;99.90;;;;;;5071172;28;20555;-50
2022/08/13 02:42:59;;;;;;;4.00;2.20;;;14.70;99.90;;;;;;5071414;28;20979;-50
2022/08/13 02:45:28;;;;;;;3.00;2.37;;;14.70;99.90;;;;;;5071710;28;20453;-50
2022/08/13 02:47:57;;;;;;;3.53;2.50;;;14.70;99.90;;;;;;5071830;28;20471;-50
2022/08/13 02:50:24;;;;;;;3.77;2.47;;;14.90;99.90;;;;;;5071556;28;20800;-50
2022/08/13 02:52:53;;;;;;;3.10;2.80;;;15.20;99.90;;;;;;5071481;28;20449;-50
2022/08/13 02:55:22;;;;;;;3.27;2.70;;;15.20;99.90;;;;;;5071241;28;20471;-50
2022/08/13 02:57:50;;;;;;;2.73;2.53;;;15.10;99.90;;;;;;5071100;28;20953;-50
2022/08/13 03:00:19;;;;;;;3.00;2.53;;;14.70;99.90;;;;;;5070904;28;20518;-50
2022/08/13 03:02:48;;;;;;;2.60;2.40;;;15.00;99.90;;;;;;5071253;28;20451;-50
2022/08/13 03:05:18;;;;;;;3.93;2.50;;;15.00;99.90;;;;;;5071339;28;20852;-50
2022/08/13 03:07:48;;;;;;;3.20;2.60;;;15.10;99.90;;;;;;5070940;28;20449;-50
2022/08/13 03:10:17;;;;;;;3.37;3.07;;;15.30;99.90;;;;;;5071103;28;20452;-51
2022/08/13 03:12:47;;;;;;;3.00;2.40;;;15.10;99.90;;;;;;5071162;28;20498;-51
2022/08/13 03:15:15;;;;;;;2.20;2.00;;;15.40;99.90;;;;;;5070942;28;20941;-50
2022/08/13 03:17:43;;;;;;;3.30;2.83;;;15.00;99.90;;;;;;5071229;28;20527;-51
2022/08/13 03:20:16;;;;;;;2.60;2.40;;;14.60;99.90;;;;;;5070722;28;20471;-50
2022/08/13 03:22:50;;;;;;;3.33;2.50;;;14.70;99.90;;;;;;5070792;28;20440;-50
2022/08/13 03:25:17;;;;;;;2.80;2.47;;;14.80;99.90;;;;;;5070601;28;20540;-50
2022/08/13 03:27:45;;;;;;;5.07;2.53;;;14.30;99.90;;;;;;5070844;28;20521;-50
2022/08/13 03:30:14;;;;;;;2.50;2.30;;;14.40;99.90;;;;;;5070659;28;20527;-50
2022/08/13 03:32:43;;;;;;;2.80;2.60;;;14.30;99.90;;;;;;5070687;28;20472;-51
2022/08/13 03:35:16;;;;;;;3.23;2.67;;;14.60;99.90;;;;;;5070681;28;20852;-50
2022/08/13 03:37:46;;;;;;;2.60;2.37;;;14.80;99.90;;;;;;5070909;28;20809;-50
2022/08/13 03:40:15;;;;;;;2.60;2.30;;;14.70;99.90;;;;;;5070670;28;20510;-50
2022/08/13 03:42:42;;;;;;;3.80;2.73;;;14.10;99.90;;;;;;5070794;28;20452;-50
2022/08/13 03:45:10;;;;;;;2.90;2.57;;;14.30;99.90;;;;;;5070429;28;20864;-50
2022/08/13 03:47:38;;;;;;;2.63;2.30;;;14.40;99.90;;;;;;5071050;28;20497;-50
2022/08/13 03:50:07;;;;;;;3.03;2.63;;;14.50;99.90;;;;;;5070591;28;20444;-50
2022/08/13 03:52:37;;;;;;;2.67;2.23;;;14.60;99.90;;;;;;5070564;28;20433;-50
2022/08/13 03:55:08;;;;;;;3.00;2.40;;;14.70;99.90;;;;;;5070339;28;20514;-50
2022/08/13 03:57:36;;;;;;;2.50;2.30;;;14.60;99.90;;;;;;5070705;28;20443;-51
2022/08/13 04:00:04;;;;;;;2.60;2.40;;;14.80;99.90;;;;;;5070672;28;20463;-51
2022/08/13 04:02:32;;;;;;;3.10;2.60;;;15.00;99.90;;;;;;5070575;28;20471;-50
2022/08/13 04:04:59;;;;;;;2.60;2.40;;;15.00;99.90;;;;;;5071625;28;20878;-50
2022/08/13 04:07:27;;;;;;;3.00;2.80;;;15.00;99.90;;;;;;5070544;28;20456;-50
2022/08/13 04:09:56;;;;;;;2.80;2.60;;;14.80;99.90;;;;;;5070026;28;20475;-50
2022/08/13 04:12:23;;;;;;;3.30;3.00;;;14.50;99.90;;;;;;5070467;28;20436;-50
2022/08/13 04:14:50;;;;;;;3.27;2.80;;;14.30;99.90;;;;;;5070413;28;20525;-50
2022/08/13 04:17:17;;;;;;;3.13;2.93;;;14.30;99.90;;;;;;5070453;28;20518;-50
2022/08/13 04:19:45;;;;;;;2.40;2.20;;;14.30;99.90;;;;;;5073372;28;20436;-50
2022/08/13 04:22:13;;;;;;;3.47;2.50;;;14.50;99.90;;;;;;5074099;28;20472;-49
2022/08/13 04:24:41;;;;;;;3.03;2.83;;;14.60;99.90;;;;;;5074097;28;20444;-49
2022/08/13 04:27:09;;;;;;;2.93;2.73;;;14.60;99.90;;;;;;5074296;28;20460;-50
2022/08/13 04:29:36;;;;;;;2.80;2.60;;;14.60;99.90;;;;;;5074066;28;20445;-49
2022/08/13 04:32:04;;;;;;;3.50;3.20;;;14.70;99.90;;;;;;5073921;28;20462;-51
2022/08/13 04:34:31;;;;;;;6.10;3.60;;;14.60;99.90;;;;;;5074156;28;20449;-50
2022/08/13 04:36:58;;;;;;;2.70;2.50;;;14.50;99.90;;;;;;5074196;28;20445;-50
2022/08/13 04:39:25;;;;;;;4.07;2.73;;;14.50;99.90;;;;;;5073644;28;20549;-50
2022/08/13 04:41:53;;;;;;;2.83;2.23;;;14.60;99.90;;;;;;5073871;28;20479;-50
2022/08/13 04:44:21;;;;;;;3.43;3.13;;;14.60;99.90;;;;;;5073730;28;20444;-50
2022/08/13 04:46:48;;;;;;;3.10;2.80;;;14.50;99.90;;;;;;5073838;28;20482;-50
2022/08/13 04:49:15;;;;;;;3.17;2.87;;;14.20;99.90;;;;;;5073563;28;20808;-49
2022/08/13 04:51:43;;;;;;;3.87;3.47;;;14.00;99.90;;;;;;5073854;28;20860;-50
2022/08/13 04:54:10;;;;;;;3.07;2.77;;;14.00;99.90;;;;;;5073351;28;20468;-50
2022/08/13 04:56:37;;;;;;;3.50;3.20;;;14.40;99.90;;;;;;5073811;28;20452;-50
2022/08/13 04:59:04;;;;;;;3.20;2.83;;;14.50;99.90;;;;;;5073431;28;20455;-50
2022/08/13 05:01:32;;;;;;;2.70;2.50;;;14.60;99.90;;;;;;5073390;28;20475;-51
2022/08/13 05:04:00;;;;;;;2.67;2.37;;;14.40;99.90;;;;;;5073545;28;20652;-51
2022/08/13 05:06:27;;;;;;;4.70;3.10;;;14.40;99.90;;;;;;5073375;28;20928;-50
2022/08/13 05:08:55;;;;;;;2.33;2.13;;;14.40;99.90;;;;;;5073468;28;20444;-50
2022/08/13 05:11:22;;;;;;;2.43;2.23;;;14.30;99.90;;;;;;5073740;28;20563;-50
2022/08/13 05:13:49;;;;;;;2.80;2.60;;;14.60;99.90;;;;;;5073421;28;20969;-51
2022/08/13 05:16:17;;;;;;;4.23;3.47;;;14.60;99.90;;;;;;5073415;28;20433;-49
2022/08/13 05:18:50;;;;;;;3.23;2.93;;;14.50;99.90;;;;;;5073217;28;20509;-50
2022/08/13 05:21:20;;;;;;;4.50;4.10;;;14.30;99.90;;;;;;5073418;28;20476;-50
2022/08/13 05:23:53;;;;;;;3.27;2.97;;;13.90;99.90;;;;;;5072468;28;20582;-50
2022/08/13 05:26:21;;;;;;;3.80;3.50;;;13.60;99.90;;;;;;5073438;28;20452;-49
2022/08/13 05:28:49;;;;;;;3.30;3.00;;;13.50;99.90;;;;;;5072548;28;20451;-51
2022/08/13 05:31:18;;;;;;;3.30;2.67;;;13.80;99.90;;;;;;5072932;28;20512;-51
2022/08/13 05:33:47;;;;;;;3.10;2.50;;;14.10;99.90;;;;;;5073297;28;20563;-50
2022/08/13 05:36:14;;;;;;;4.03;3.20;;;14.50;99.90;;;;;;5073766;28;20510;-50
2022/08/13 05:38:41;;;;;;;2.90;2.67;;;14.20;99.90;;;;;;5072847;28;20458;-50
2022/08/13 05:41:11;;;;;;;3.93;3.03;;;14.40;99.90;;;;;;5072913;28;20468;-50
2022/08/13 05:43:38;;;;;;;3.00;2.70;;;14.30;99.90;;;;;;5073079;28;20504;-50
2022/08/13 05:46:07;;;;;;;3.57;3.10;;;14.10;99.90;;;;;;5072953;28;20494;-50
2022/08/13 05:48:36;;;;;;;4.17;2.90;;;14.40;99.90;;;;;;5072497;28;20986;-50
2022/08/13 05:51:07;;;;;;;4.60;3.23;;;14.20;99.90;;;;;;5072625;28;20929;-50
2022/08/13 05:53:35;;;;;;;3.67;3.37;;;14.30;99.90;;;;;;5072913;28;20465;-50
2022/08/13 05:56:04;;;;;;;3.47;2.67;;;14.40;99.90;;;;;;5072240;28;20448;-50
2022/08/13 05:58:31;;;;;;;3.20;3.00;;;14.20;99.90;;;;;;5072563;28;21013;-50
2022/08/13 06:03:44;;;;;;;4.00;3.30;;;14.50;99.90;;;;;;5072303;28;20456;-50
2022/08/13 06:06:15;;;;;;;3.30;3.00;;;14.60;99.90;;;;;;5072596;28;20502;-50
2022/08/13 06:08:44;;;;;;;3.40;3.17;;;14.50;99.90;;;;;;5072181;28;20460;-51
2022/08/13 06:11:14;;;;;;;5.33;4.07;;;14.30;99.90;;;;;;5072720;28;20451;-49
2022/08/13 06:13:41;;;;;;;4.50;4.10;;;13.10;99.90;;;;;;5072267;28;20467;-51
2022/08/13 06:16:10;;;;;;;4.40;3.80;;;12.70;99.90;;;;;;5072224;28;20506;-50
2022/08/13 06:18:40;;;;;;;4.50;4.07;;;13.30;99.90;;;;;;5072108;28;20441;-50
2022/08/13 06:21:10;;;;;;;6.30;4.03;;;13.60;99.90;;;;;;5071949;28;21023;-52
2022/08/13 06:23:39;;;;;;;4.17;3.67;;;14.10;99.90;;;;;;5072010;28;20482;-50
2022/08/13 06:26:08;;;;;;;3.03;2.83;;;14.10;99.90;;;;;;5072437;28;20801;-49
2022/08/13 06:28:37;;;;;;;5.10;3.97;;;13.20;99.90;;;;;;5071998;28;20502;-49
2022/08/13 06:31:05;;;;;;;4.30;3.90;;;13.10;99.90;;;;;;5071560;28;20432;-49
2022/08/13 06:33:35;;;;;;;3.80;3.47;;;13.40;99.90;;;;;;5071825;28;20557;-50
2022/08/13 06:36:05;;;;;;;4.33;3.67;;;13.20;99.90;;;;;;5071690;28;20437;-50
2022/08/13 06:38:33;;;;;;;5.17;4.67;;;;;;;;;;5071754;28;20922;-52
2022/08/13 06:41:03;;;;;;;5.50;4.57;;;13.10;99.90;;;;;;5070586;28;20421;-49
2022/08/13 06:43:32;;;;;;;4.67;4.23;;;13.30;99.90;;;;;;5071853;28;20473;-50
2022/08/13 06:46:00;;;;;;;5.57;5.17;;;13.30;99.90;;;;;;5071510;28;20437;-50
2022/08/13 06:48:28;;;;;;;5.57;5.07;;;13.40;99.90;;;;;;5071618;28;20448;-49
2022/08/13 06:50:55;;;;;;;5.87;5.37;;;13.20;99.90;;;;;;5070869;28;20432;-49
2022/08/13 06:53:22;;;;;;;5.80;4.93;;;13.70;99.90;;;;;;5071248;28;20475;-50
2022/08/13 06:55:51;;;;;;;4.57;4.17;;;14.10;99.90;;;;;;5071384;28;20440;-51
2022/08/13 06:58:27;;;;;;;4.60;4.20;;;14.70;99.90;;;;;;5071240;28;20448;-50
2022/08/13 07:00:55;;;;;;;6.97;4.50;;;14.90;99.90;;;;;;5071457;28;20489;-50
2022/08/13 07:03:26;;;;;;;4.20;3.90;;;14.90;99.90;;;;;;5071049;28;20479;-52
2022/08/13 07:05:53;;;;;;;4.40;4.10;;;15.10;99.90;;;;;;5071599;28;20506;-50
2022/08/13 07:08:22;;;;;;;4.43;4.00;;;15.20;99.90;;;;;;5071413;28;20940;-49
2022/08/13 07:11:21;;;;;;;3.73;3.43;;;15.20;99.90;;;;;;5071149;28;20922;-50
2022/08/13 07:13:42;;;;;;;4.50;4.10;;;15.20;99.90;;;;;;5071145;28;20910;-52
2022/08/13 07:16:10;;;;;;;4.40;3.80;;;15.30;99.90;;;;;;5071294;28;20444;-50
2022/08/13 07:18:37;;;;;;;7.57;4.70;;;15.10;99.90;;;;;;5071490;28;20436;-50
2022/08/13 07:21:08;;;;;;;5.67;4.27;;;15.40;99.90;;;;;;5071167;28;20795;-50
2022/08/13 07:23:36;;;;;;;4.67;4.27;;;15.60;99.90;;;;;;5071557;28;20496;-50
2022/08/13 07:26:04;;;;;;;4.37;3.77;;;15.60;99.90;;;;;;5071371;28;20527;-50
2022/08/13 07:28:32;;;;;;;4.60;3.70;;;15.80;99.90;;;;;;5071354;28;20449;-50
2022/08/13 07:31:03;;;;;;;15.03;5.83;;;15.90;99.90;;;;;;5071261;28;20853;-50
2022/08/13 07:33:30;;;;;;;3.83;3.43;;;16.10;99.90;;;;;;5071550;28;20468;-52
2022/08/13 07:35:57;;;;;;;4.40;3.90;;;15.90;99.90;;;;;;5071317;28;20494;-50
2022/08/13 07:38:27;;;;;;;3.47;3.17;;;15.80;99.90;;;;;;5070875;28;20429;-50
2022/08/13 07:40:55;;;;;;;8.10;3.70;;;15.70;99.90;;;;;;5070601;28;20490;-52
2022/08/13 07:43:23;;;;;;;4.23;3.93;;;15.80;99.90;;;;;;5068886;28;20500;-50
2022/08/13 07:46:07;;;;;;;4.00;3.70;;;15.70;99.90;;;;;;5069137;28;20435;-50
2022/08/13 07:48:36;;;;;;;6.33;3.50;;;16.10;99.90;;;;;;5069477;28;20448;-49
2022/08/13 07:51:05;;;;;;;3.57;3.27;;;16.20;99.90;;;;;;5069734;28;20777;-50
2022/08/13 07:53:34;;;;;;;3.97;3.60;;;16.40;99.90;;;;;;5069191;28;20468;-51
2022/08/13 07:56:02;;;;;;;4.47;4.10;;;16.70;99.90;;;;;;5069376;28;20432;-51
2022/08/13 07:58:30;;;;;;;3.93;3.63;;;16.70;99.90;;;;;;5070842;28;20518;-50
2022/08/13 08:00:59;;;;;;;3.47;3.17;;;16.90;99.90;;;;;;5069863;28;20472;-51
2022/08/13 08:03:32;;;;;;;3.70;3.40;;;17.10;99.90;;;;;;5069985;28;20833;-50
2022/08/13 08:06:03;;;;;;;3.17;2.87;;;17.30;99.90;;;;;;5070469;28;20917;-50
2022/08/13 08:08:33;;;;;;;3.90;3.00;;;17.40;99.90;;;;;;5070649;28;20432;-51
2022/08/13 08:11:01;;;;;;;5.37;4.00;;;17.60;99.90;;;;;;5070643;28;20449;-52
2022/08/13 08:13:30;;;;;;;3.27;2.97;;;17.60;99.90;;;;;;5070745;28;20464;-53
2022/08/13 08:15:57;;;;;;;2.93;2.73;;;17.60;99.90;;;;;;5070687;28;20483;-52
2022/08/13 08:18:24;;;;;;;3.20;2.90;;;17.70;99.90;;;;;;5070788;28;20505;-51
2022/08/13 08:21:04;;;;;;;3.17;2.87;;;17.80;99.90;;;;;;5070431;28;20862;-53
2022/08/13 08:23:34;;;;;;;2.50;2.30;;;17.70;99.90;;;;;;5070518;28;20486;-53
2022/08/13 08:26:06;;;;;;;3.40;3.10;;;17.70;99.90;;;;;;5070567;28;20452;-50
2022/08/13 08:28:35;;;;;;;3.67;3.30;;;17.80;99.90;;;;;;5070596;28;20437;-53
2022/08/13 08:31:07;;;;;;;2.83;2.60;;;17.90;99.90;;;;;;5070553;28;20445;-50
2022/08/13 08:33:35;;;;;;;3.30;2.70;;;17.40;99.90;;;;;;5070547;28;20457;-51
2022/08/13 08:36:04;;;;;;;3.20;2.60;;;18.00;99.90;;;;;;5070752;28;20452;-50
2022/08/13 08:44:04;;;;;;;3.10;2.80;;;18.10;99.90;;;;;;5070397;28;20578;-50
2022/08/13 08:46:34;;;;;;;3.30;3.00;;;18.30;99.90;;;;;;5070248;28;20429;-50
2022/08/13 08:49:04;;;;;;;3.70;2.60;;;17.40;99.90;;;;;;5070657;28;20472;-50
2022/08/13 08:51:35;;;;;;;4.83;2.93;;;17.40;99.90;;;;;;5070533;28;20463;-51
2022/08/13 08:54:03;;;;;;;3.10;2.90;;;18.20;99.90;;;;;;5070465;28;20472;-50
2022/08/13 08:56:34;;;;;;;4.00;3.07;;;18.50;99.90;;;;;;5070482;28;20449;-50
2022/08/13 08:59:02;;;;;;;3.60;3.30;;;18.70;99.90;;;;;;5070215;28;20440;-50
2022/08/13 09:01:34;;;;;;;5.90;3.00;;;18.70;99.90;;;;;;5069984;28;20536;-50
2022/08/13 09:04:05;;;;;;;2.93;2.73;;;18.80;99.90;;;;;;5070270;28;20464;-50
2022/08/13 09:06:33;;;;;;;3.90;2.97;;;19.10;99.90;;;;;;5074059;28;20456;-50
2022/08/13 09:09:01;;;;;;;3.30;3.00;;;19.30;99.90;;;;;;5073654;28;20451;-50
2022/08/13 09:11:32;;;;;;;3.63;3.33;;;19.40;99.90;;;;;;5073788;28;20468;-50
2022/08/13 09:13:59;;;;;;;4.30;3.90;;;19.20;99.90;;;;;;5073889;28;20452;-50
2022/08/13 09:16:29;;;;;;;6.03;5.63;;;18.50;99.90;;;;;;5073756;28;20425;-50
2022/08/13 09:18:57;;;;;;;4.90;4.40;;;18.80;99.90;;;;;;5073810;28;20416;-50
2022/08/13 09:21:25;;;;;;;4.73;4.33;;;18.80;99.90;;;;;;5073660;28;20440;-52
2022/08/13 09:23:53;;;;;;;4.33;3.97;;;19.40;99.90;;;;;;5072952;28;20514;-50
2022/08/13 09:26:20;;;;;;;3.20;3.00;;;19.70;99.90;;;;;;5073535;28;20456;-50
2022/08/13 09:28:49;;;;;;;4.37;3.67;;;19.40;99.90;;;;;;5073409;28;20575;-50
2022/08/13 09:31:16;;;;;;;3.43;3.03;;;18.70;99.90;;;;;;5073415;28;20521;-50
2022/08/13 09:33:44;;;;;;;3.90;2.93;;;19.80;99.90;;;;;;5073145;28;20499;-51
2022/08/13 09:36:12;;;;;;;3.80;3.50;;;19.70;99.90;;;;;;5073396;28;20957;-52
2022/08/13 09:38:41;;;;;;;3.67;3.10;;;19.90;99.90;;;;;;5073619;28;20838;-51
2022/08/13 09:41:18;;;;;;;3.93;3.63;;;20.10;99.90;;;;;;5072946;28;20490;-52
2022/08/13 09:43:46;;;;;;;3.80;3.27;;;20.10;99.90;;;;;;5072940;28;20488;-50
2022/08/13 09:46:15;;;;;;;4.40;3.23;;;19.80;99.90;;;;;;5073795;28;20455;-50
2022/08/13 09:48:42;;;;;;;4.40;2.97;;;20.20;99.90;;;;;;5072779;28;20437;-50
2022/08/13 09:51:13;;;;;;;3.73;3.33;;;20.40;99.90;;;;;;5073110;28;20862;-50
2022/08/13 09:53:41;;;;;;;2.97;2.43;;;19.90;99.90;;;;;;5072882;28;20964;-50
2022/08/13 09:56:08;;;;;;;2.80;2.47;;;19.80;99.90;;;;;;5072650;28;20435;-50
2022/08/13 09:58:37;;;;;;;2.87;2.57;;;20.40;99.90;;;;;;5072733;28;20425;-50
2022/08/13 10:01:04;;;;;;;4.53;2.40;;;20.70;99.90;;;;;;5072123;28;20449;-51
2022/08/13 10:03:33;;;;;;;3.07;2.30;;;21.00;99.90;;;;;;5072239;28;20481;-50
2022/08/13 10:06:00;;;;;;;2.67;2.40;;;20.60;98.00;;;;;;5133528;22;20875;-49
2022/08/13 10:08:27;;;;;;;2.93;2.40;;;20.90;99.90;;;;;;5072790;28;20898;-49
2022/08/13 10:10:54;;;;;;;2.20;2.00;;;20.90;98.20;;;;;;5072862;28;20456;-48
2022/08/13 10:13:21;;;;;;;2.43;2.23;;;21.20;99.50;;;;;;5072886;28;20796;-49
2022/08/13 10:15:49;;;;;;;3.70;2.50;;;21.20;99.90;;;;;;5071591;28;20476;-50
2022/08/13 10:18:17;;;;;;;2.10;1.90;;;21.20;98.60;;;;;;5072712;28;20538;-50
2022/08/13 10:20:45;;;;;;;2.40;2.20;;;21.20;99.90;;;;;;5072496;28;20519;-49
2022/08/13 10:23:15;;;;;;;4.40;2.60;;;21.20;99.10;;;;;;5072624;28;21002;-50
2022/08/13 10:25:43;;;;;;;2.30;2.03;;;21.20;98.50;;;;;;5072228;28;20472;-49
2022/08/13 10:28:20;;;;;;;2.37;2.17;;;21.40;98.00;;;;;;5072262;28;20501;-50
2022/08/13 10:30:47;;;;;;;2.43;2.17;;;21.10;99.90;;;;;;5072497;28;20440;-50
2022/08/13 10:33:16;;;;;;;2.57;1.90;;;21.60;99.10;;;;;;5072657;28;20445;-49
2022/08/13 10:35:44;;;;;;;3.67;2.20;;;21.70;97.90;;;;;;5072237;28;20492;-50
2022/08/13 10:38:15;;;;;;;5.73;2.20;;;21.70;99.40;;;;;;5072467;28;20527;-50
2022/08/13 10:40:42;;;;;;;2.50;1.90;;;22.10;98.90;;;;;;5072135;28;20513;-50
2022/08/13 10:43:10;;;;;;;2.47;2.23;;;22.50;97.50;;;;;;5072068;28;20480;-49
2022/08/13 10:45:42;;;;;;;2.53;2.33;;;22.20;97.20;;;;;;5072038;28;20547;-49
2022/08/13 10:48:12;;;;;;;3.07;2.20;;;22.20;98.30;;;;;;5072052;28;20987;-50
2022/08/13 10:50:42;;;;;;;2.90;2.60;;;22.30;97.30;;;;;;5071873;28;21028;-49
2022/08/13 10:53:55;;;;;;;2.50;2.23;;;22.00;98.40;;;;;;5072151;28;20925;-49
2022/08/13 10:55:57;;;;;;;3.20;2.90;;;22.40;98.60;;;;;;5072079;28;20464;-49
2022/08/13 10:58:24;;;;;;;2.60;2.03;;;22.40;97.70;;;;;;5071672;28;20435;-49
2022/08/13 11:00:51;;;;;;;2.73;2.20;;;22.40;98.30;;;;;;5071751;28;20429;-49
2022/08/13 11:03:18;;;;;;;3.53;2.90;;;22.70;97.30;;;;;;5071527;28;20464;-49
2022/08/13 11:05:47;;;;;;;2.73;2.37;;;22.50;99.50;;;;;;5071869;28;20866;-49
2022/08/13 11:08:15;;;;;;;5.30;2.43;;;22.60;98.90;;;;;;5072132;28;20456;-49
2022/08/13 11:10:42;;;;;;;2.60;2.40;;;22.80;98.40;;;;;;5071550;28;20472;-49
2022/08/13 11:13:09;;;;;;;3.27;2.77;;;22.90;96.50;;;;;;5071883;28;20456;-49
2022/08/13 11:15:36;;;;;;;2.97;2.37;;;22.60;97.90;;;;;;5071414;28;20989;-49
2022/08/13 11:18:05;;;;;;;2.57;2.37;;;22.60;97.00;;;;;;5071609;28;20449;-49
2022/08/13 11:20:40;;;;;;;2.70;2.20;;;22.70;96.00;;;;;;5071207;28;20852;-49
2022/08/13 11:23:09;;;;;;;3.57;2.30;;;22.90;97.10;;;;;;5071282;28;20471;-49
2022/08/13 11:25:36;;;;;;;1.83;1.37;;;23.10;95.70;;;;;;5070883;28;20460;-49
2022/08/13 11:28:03;;;;;;;3.30;2.10;;;23.20;95.30;;;;;;5071623;28;20444;-49
2022/08/13 11:30:30;;;;;;;4.00;1.60;;;23.30;95.40;;;;;;5070927;28;20432;-49
2022/08/13 11:32:57;;;;;;;2.13;1.77;;;23.20;95.80;;;;;;5071489;28;20444;-49
2022/08/13 11:35:24;;;;;;;2.30;1.90;;;23.10;94.90;;;;;;5071335;28;20472;-50
2022/08/13 11:37:51;;;;;;;3.40;2.00;;;23.30;93.90;;;;;;5071284;28;20448;-50
2022/08/13 11:40:19;;;;;;;2.80;1.83;;;23.10;94.00;;;;;;5071048;28;20453;-50
2022/08/13 11:42:46;;;;;;;2.70;2.10;;;22.90;96.40;;;;;;5071199;28;20472;-50
2022/08/13 11:45:14;;;;;;;2.40;1.40;;;23.10;92.60;;;;;;5070908;28;20979;-49
2022/08/13 11:47:41;;;;;;;4.17;1.80;;;22.90;93.90;;;;;;5071281;28;20504;-49
2022/08/13 11:50:09;;;;;;;1.90;1.67;;;23.00;92.60;;;;;;5071387;28;20449;-49
2022/08/13 11:52:36;;;;;;;1.60;1.37;;;23.00;94.60;;;;;;5071081;28;20432;-49
2022/08/13 11:55:03;;;;;;;6.77;2.23;;;23.10;95.30;;;;;;5070616;28;20706;-49
2022/08/13 11:57:32;;;;;;;3.73;2.00;;;23.10;92.50;;;;;;5071089;28;20436;-49
2022/08/13 11:59:59;;;;;;;3.73;1.83;;;23.10;93.30;;;;;;5070597;28;20432;-49
2022/08/13 12:02:26;;;;;;;1.90;1.67;;;23.10;95.50;;;;;;5070621;28;20445;-49
2022/08/13 12:04:53;;;;;;;2.20;1.60;;;23.40;92.50;;;;;;5070540;28;21042;-49
2022/08/13 12:07:20;;;;;;;2.10;1.90;;;23.40;92.90;;;;;;5070915;28;20509;-49
2022/08/13 12:09:46;;;;;;;2.77;2.00;;;23.40;94.10;;;;;;5070460;28;20448;-49
2022/08/13 12:12:14;;;;;;;2.00;1.80;;;23.50;92.70;;;;;;5071225;28;20436;-49
2022/08/13 12:14:43;;;;;;;2.37;1.53;;;23.40;94.30;;;;;;5070841;28;20848;-49
2022/08/13 12:17:10;;;;;;;2.30;2.03;;;23.00;93.80;;;;;;5070873;28;20440;-49
2022/08/13 12:19:37;;;;;;;2.40;2.10;;;22.90;95.10;;;;;;5070603;28;20478;-49
2022/08/13 12:22:04;;;;;;;1.97;1.80;;;22.60;95.50;;;;;;5070863;28;20444;-49
2022/08/13 12:24:32;;;;;;;2.27;1.97;;;22.70;95.10;;;;;;5070141;28;20506;-49
2022/08/13 12:26:59;;;;;;;2.60;1.70;;;22.60;93.70;;;;;;5070722;28;20432;-49
2022/08/13 12:29:25;;;;;;;2.03;1.60;;;22.30;96.20;;;;;;5070461;28;20448;-49
2022/08/13 12:31:54;;;;;;;3.47;2.03;;;22.20;96.00;;;;;;5070653;28;20441;-49
2022/08/13 12:34:21;;;;;;;3.70;2.10;;;22.30;94.70;;;;;;5070705;28;20481;-50
2022/08/13 12:36:48;;;;;;;2.10;1.87;;;22.40;94.10;;;;;;5070883;28;20445;-49
2022/08/13 12:39:15;;;;;;;2.37;1.93;;;22.40;95.40;;;;;;5071440;28;20897;-49
2022/08/13 12:41:42;;;;;;;2.50;1.90;;;22.50;93.40;;;;;;5074229;28;20444;-49
2022/08/13 12:44:09;;;;;;;2.00;1.60;;;22.40;95.70;;;;;;5073975;28;20468;-50
2022/08/13 12:46:36;;;;;;;4.33;1.97;;;22.50;94.90;;;;;;5074551;28;20944;-49
2022/08/13 12:49:07;;;;;;;2.60;1.47;;;22.50;93.20;;;;;;5074135;28;20480;-50
2022/08/13 12:51:34;;;;;;;2.10;1.90;;;22.50;94.40;;;;;;5074442;28;20436;-49
2022/08/13 12:54:01;;;;;;;2.03;1.83;;;22.50;94.60;;;;;;5074506;28;20441;-49
2022/08/13 12:56:28;;;;;;;3.70;2.10;;;22.60;94.90;;;;;;5073674;28;20447;-49
2022/08/13 12:58:55;;;;;;;4.17;1.93;;;23.20;95.40;;;;;;5074120;28;20905;-49
2022/08/13 13:01:22;;;;;;;2.07;1.87;;;23.60;91.90;;;;;;5074109;28;20508;-51
2022/08/13 13:03:49;;;;;;;1.90;1.50;;;23.50;92.30;;;;;;5073675;28;20472;-49
2022/08/13 13:06:19;;;;;;;1.97;1.80;;;23.40;91.70;;;;;;5074121;28;20479;-49
2022/08/13 13:08:46;;;;;;;2.23;1.73;;;23.20;90.10;;;;;;5073815;28;20971;-47
2022/08/13 13:11:13;;;;;;;1.83;1.63;;;23.10;92.30;;;;;;5073884;28;20437;-49